sensor_id;sensor_type;location;lat;lon;timestamp;pressure;altitude;pressure_sealevel;temperature;humidity
48964;BME280;34776;48.180;16.420;2023-10-13T00:00:08;99957.31;;;19.46;62.11
48964;BME280;34776;48.180;16.420;2023-10-13T00:02:51;99961.06;;;19.34;62.17
48964;BME280;34776;48.180;16.420;2023-10-13T00:05:18;99955.63;;;19.24;63.27
48964;BME280;34776;48.180;16.420;2023-10-13T00:07:43;99942.28;;;19.22;63.28
48964;BME280;34776;48.180;16.420;2023-10-13T00:10:09;99933.03;;;19.15;63.80
48964;BME280;34776;48.180;16.420;2023-10-13T00:12:35;99918.13;;;19.11;64.42
48964;BME280;34776;48.180;16.420;2023-10-13T00:15:04;99945.78;;;19.13;64.48
48964;BME280;34776;48.180;16.420;2023-10-13T00:17:38;99952.00;;;19.14;64.66
48964;BME280;34776;48.180;16.420;2023-10-13T00:20:08;99932.31;;;19.13;64.84
48964;BME280;34776;48.180;16.420;2023-10-13T00:22:53;99942.09;;;19.14;64.74
48964;BME280;34776;48.180;16.420;2023-10-13T00:25:18;99906.34;;;19.12;64.95
48964;BME280;34776;48.180;16.420;2023-10-13T00:27:53;99917.63;;;19.06;65.44
48964;BME280;34776;48.180;16.420;2023-10-13T00:30:18;99914.09;;;19.05;65.09
48964;BME280;34776;48.180;16.420;2023-10-13T00:32:59;99916.78;;;19.05;65.50
48964;BME280;34776;48.180;16.420;2023-10-13T00:35:28;99881.84;;;18.94;65.67
48964;BME280;34776;48.180;16.420;2023-10-13T00:37:57;99901.56;;;18.95;65.07
48964;BME280;34776;48.180;16.420;2023-10-13T00:40:29;99902.00;;;19.00;64.61
48964;BME280;34776;48.180;16.420;2023-10-13T00:42:55;99901.81;;;19.13;63.99
48964;BME280;34776;48.180;16.420;2023-10-13T00:45:32;99902.59;;;19.24;64.12
48964;BME280;34776;48.180;16.420;2023-10-13T00:47:59;99899.38;;;19.31;63.88
48964;BME280;34776;48.180;16.420;2023-10-13T00:50:27;99893.28;;;19.29;64.05
48964;BME280;34776;48.180;16.420;2023-10-13T00:52:55;99889.84;;;19.26;64.40
48964;BME280;34776;48.180;16.420;2023-10-13T00:55:21;99883.47;;;19.27;64.31
48964;BME280;34776;48.180;16.420;2023-10-13T00:57:52;99877.81;;;19.31;64.54
48964;BME280;34776;48.180;16.420;2023-10-13T01:00:19;99882.75;;;19.25;64.80
48964;BME280;34776;48.180;16.420;2023-10-13T01:02:49;99888.13;;;19.25;65.06
48964;BME280;34776;48.180;16.420;2023-10-13T01:05:32;99909.44;;;19.29;65.10
48964;BME280;34776;48.180;16.420;2023-10-13T01:08:00;99923.63;;;19.31;64.92
48964;BME280;34776;48.180;16.420;2023-10-13T01:10:26;99939.66;;;19.32;65.24
48964;BME280;34776;48.180;16.420;2023-10-13T01:12:52;99924.81;;;19.17;65.34
48964;BME280;34776;48.180;16.420;2023-10-13T01:15:21;99916.88;;;18.94;66.68
48964;BME280;34776;48.180;16.420;2023-10-13T01:17:48;99903.81;;;18.78;67.68
48964;BME280;34776;48.180;16.420;2023-10-13T01:20:14;99905.28;;;18.82;68.12
48964;BME280;34776;48.180;16.420;2023-10-13T01:22:50;99909.03;;;18.91;68.63
48964;BME280;34776;48.180;16.420;2023-10-13T01:25:23;99900.31;;;18.99;68.38
48964;BME280;34776;48.180;16.420;2023-10-13T01:27:53;99886.56;;;19.02;68.11
48964;BME280;34776;48.180;16.420;2023-10-13T01:30:19;99877.13;;;19.08;67.97
48964;BME280;34776;48.180;16.420;2023-10-13T01:32:52;99869.63;;;19.11;67.92
48964;BME280;34776;48.180;16.420;2023-10-13T01:35:19;99872.91;;;19.15;68.20
48964;BME280;34776;48.180;16.420;2023-10-13T01:37:51;99883.66;;;19.15;68.28
48964;BME280;34776;48.180;16.420;2023-10-13T01:40:16;99895.56;;;19.12;68.59
48964;BME280;34776;48.180;16.420;2023-10-13T01:42:45;99895.84;;;19.09;69.20
48964;BME280;34776;48.180;16.420;2023-10-13T01:45:11;99895.13;;;19.07;69.24
48964;BME280;34776;48.180;16.420;2023-10-13T01:47:39;99887.56;;;19.01;69.98
48964;BME280;34776;48.180;16.420;2023-10-13T01:50:06;99894.19;;;18.97;70.28
48964;BME280;34776;48.180;16.420;2023-10-13T01:52:47;99894.94;;;18.99;70.29
48964;BME280;34776;48.180;16.420;2023-10-13T01:55:13;99899.47;;;18.98;70.49
48964;BME280;34776;48.180;16.420;2023-10-13T01:57:42;99902.72;;;19.02;70.64
48964;BME280;34776;48.180;16.420;2023-10-13T02:00:12;99894.53;;;19.03;70.52
48964;BME280;34776;48.180;16.420;2023-10-13T02:02:45;99906.03;;;19.05;70.85
48964;BME280;34776;48.180;16.420;2023-10-13T02:05:15;99910.81;;;19.02;71.15
48964;BME280;34776;48.180;16.420;2023-10-13T02:07:42;99894.66;;;19.02;70.93
48964;BME280;34776;48.180;16.420;2023-10-13T02:10:11;99892.94;;;19.01;71.19
48964;BME280;34776;48.180;16.420;2023-10-13T02:12:37;99898.75;;;18.96;71.59
48964;BME280;34776;48.180;16.420;2023-10-13T02:15:11;99896.81;;;18.87;72.17
48964;BME280;34776;48.180;16.420;2023-10-13T02:17:46;99906.97;;;18.83;72.03
48964;BME280;34776;48.180;16.420;2023-10-13T02:20:18;99900.63;;;18.84;72.33
48964;BME280;34776;48.180;16.420;2023-10-13T02:22:49;99911.38;;;18.84;72.25
48964;BME280;34776;48.180;16.420;2023-10-13T02:25:17;99898.91;;;18.83;72.17
48964;BME280;34776;48.180;16.420;2023-10-13T02:28:00;99898.53;;;18.88;72.05
48964;BME280;34776;48.180;16.420;2023-10-13T02:30:25;99896.69;;;18.89;71.79
48964;BME280;34776;48.180;16.420;2023-10-13T02:32:54;99895.22;;;18.84;71.93
48964;BME280;34776;48.180;16.420;2023-10-13T02:35:20;99889.13;;;18.82;72.03
48964;BME280;34776;48.180;16.420;2023-10-13T02:37:55;99879.94;;;18.85;72.27
48964;BME280;34776;48.180;16.420;2023-10-13T02:40:23;99888.84;;;18.85;71.96
48964;BME280;34776;48.180;16.420;2023-10-13T02:42:49;99896.94;;;18.85;71.98
48964;BME280;34776;48.180;16.420;2023-10-13T02:45:14;99896.94;;;18.85;71.19
48964;BME280;34776;48.180;16.420;2023-10-13T02:47:40;99904.44;;;18.82;70.24
48964;BME280;34776;48.180;16.420;2023-10-13T02:50:09;99901.88;;;18.80;69.85
48964;BME280;34776;48.180;16.420;2023-10-13T02:52:37;99907.25;;;18.80;69.62
48964;BME280;34776;48.180;16.420;2023-10-13T02:55:07;99911.63;;;18.81;69.71
48964;BME280;34776;48.180;16.420;2023-10-13T02:57:35;99903.56;;;18.81;69.67
48964;BME280;34776;48.180;16.420;2023-10-13T03:00:01;99903.56;;;18.81;69.80
48964;BME280;34776;48.180;16.420;2023-10-13T03:02:37;99914.31;;;18.81;69.98
48964;BME280;34776;48.180;16.420;2023-10-13T03:05:12;99912.44;;;18.93;70.35
48964;BME280;34776;48.180;16.420;2023-10-13T03:07:39;99918.38;;;19.08;70.08
48964;BME280;34776;48.180;16.420;2023-10-13T03:10:09;99919.03;;;19.00;69.04
48964;BME280;34776;48.180;16.420;2023-10-13T03:12:36;99915.03;;;18.95;69.57
48964;BME280;34776;48.180;16.420;2023-10-13T03:15:01;99907.34;;;18.90;69.67
48964;BME280;34776;48.180;16.420;2023-10-13T03:17:43;99911.00;;;18.89;69.91
48964;BME280;34776;48.180;16.420;2023-10-13T03:20:17;99905.00;;;18.85;70.18
48964;BME280;34776;48.180;16.420;2023-10-13T03:22:56;99912.13;;;18.86;70.34
48964;BME280;34776;48.180;16.420;2023-10-13T03:25:21;99910.38;;;18.85;70.46
48964;BME280;34776;48.180;16.420;2023-10-13T03:28:10;99909.66;;;18.83;70.10
48964;BME280;34776;48.180;16.420;2023-10-13T03:30:41;99915.19;;;18.82;70.61
48964;BME280;34776;48.180;16.420;2023-10-13T03:33:08;99915.19;;;18.82;70.50
48964;BME280;34776;48.180;16.420;2023-10-13T03:35:40;99914.09;;;18.84;70.85
48964;BME280;34776;48.180;16.420;2023-10-13T03:38:17;99923.84;;;18.85;71.11
48964;BME280;34776;48.180;16.420;2023-10-13T03:40:44;99928.50;;;18.83;70.98
48964;BME280;34776;48.180;16.420;2023-10-13T03:43:33;99930.47;;;18.81;71.13
48964;BME280;34776;48.180;16.420;2023-10-13T03:46:00;99927.94;;;18.80;71.21
48964;BME280;34776;48.180;16.420;2023-10-13T03:48:33;99914.59;;;18.78;71.26
48964;BME280;34776;48.180;16.420;2023-10-13T03:51:07;99922.69;;;18.78;71.63
48964;BME280;34776;48.180;16.420;2023-10-13T03:53:34;99925.44;;;18.77;71.75
48964;BME280;34776;48.180;16.420;2023-10-13T03:56:00;99933.44;;;18.78;71.88
48964;BME280;34776;48.180;16.420;2023-10-13T03:58:41;99936.38;;;18.75;72.50
48964;BME280;34776;48.180;16.420;2023-10-13T04:01:12;99945.47;;;18.63;72.82
48964;BME280;34776;48.180;16.420;2023-10-13T04:03:40;99950.84;;;18.52;73.71
48964;BME280;34776;48.180;16.420;2023-10-13T04:06:23;99950.78;;;18.42;74.29
48964;BME280;34776;48.180;16.420;2023-10-13T04:09:09;99942.94;;;18.39;74.38
48964;BME280;34776;48.180;16.420;2023-10-13T04:12:06;99945.50;;;18.40;74.44
48964;BME280;34776;48.180;16.420;2023-10-13T04:14:42;99944.66;;;18.40;74.49
48964;BME280;34776;48.180;16.420;2023-10-13T04:17:20;99949.16;;;18.39;74.86
48964;BME280;34776;48.180;16.420;2023-10-13T04:19:58;99955.53;;;18.38;74.94
48964;BME280;34776;48.180;16.420;2023-10-13T04:22:34;99963.50;;;18.40;74.91
48964;BME280;34776;48.180;16.420;2023-10-13T04:25:21;99958.69;;;18.43;74.76
48964;BME280;34776;48.180;16.420;2023-10-13T04:28:13;99963.59;;;18.50;74.68
48964;BME280;34776;48.180;16.420;2023-10-13T04:30:50;99962.50;;;18.52;74.64
48964;BME280;34776;48.180;16.420;2023-10-13T04:33:26;99968.97;;;18.50;75.02
48964;BME280;34776;48.180;16.420;2023-10-13T04:36:08;99968.00;;;18.39;75.38
48964;BME280;34776;48.180;16.420;2023-10-13T04:38:47;99959.97;;;18.28;76.03
48964;BME280;34776;48.180;16.420;2023-10-13T04:41:18;99965.94;;;18.20;76.87
48964;BME280;34776;48.180;16.420;2023-10-13T04:43:48;99965.22;;;18.18;77.40
48964;BME280;34776;48.180;16.420;2023-10-13T04:46:29;99957.53;;;18.14;77.81
48964;BME280;34776;48.180;16.420;2023-10-13T04:49:04;99936.28;;;18.11;78.29
48964;BME280;34776;48.180;16.420;2023-10-13T04:51:36;99943.63;;;18.09;78.89
48964;BME280;34776;48.180;16.420;2023-10-13T04:54:30;99932.47;;;18.13;79.13
48964;BME280;34776;48.180;16.420;2023-10-13T04:57:00;99923.41;;;18.25;79.85
48964;BME280;34776;48.180;16.420;2023-10-13T04:59:44;99931.22;;;18.29;78.74
48964;BME280;34776;48.180;16.420;2023-10-13T05:02:28;99931.72;;;18.34;78.53
48964;BME280;34776;48.180;16.420;2023-10-13T05:05:10;99926.06;;;18.37;78.56
48964;BME280;34776;48.180;16.420;2023-10-13T05:07:50;99925.94;;;18.38;78.73
48964;BME280;34776;48.180;16.420;2023-10-13T05:10:35;99928.19;;;18.33;79.27
48964;BME280;34776;48.180;16.420;2023-10-13T05:13:19;99940.53;;;18.36;79.04
48964;BME280;34776;48.180;16.420;2023-10-13T05:16:04;99936.00;;;18.36;79.03
48964;BME280;34776;48.180;16.420;2023-10-13T05:18:48;99945.50;;;18.40;79.08
48964;BME280;34776;48.180;16.420;2023-10-13T05:21:35;99933.75;;;18.41;78.84
48964;BME280;34776;48.180;16.420;2023-10-13T05:24:18;99942.31;;;18.46;78.64
48964;BME280;34776;48.180;16.420;2023-10-13T05:27:02;99941.22;;;18.49;78.86
48964;BME280;34776;48.180;16.420;2023-10-13T05:29:47;99942.66;;;18.53;78.94
48964;BME280;34776;48.180;16.420;2023-10-13T05:32:32;99946.69;;;18.59;78.75
48964;BME280;34776;48.180;16.420;2023-10-13T05:35:16;99955.50;;;18.61;78.85
48964;BME280;34776;48.180;16.420;2023-10-13T05:38:01;99958.03;;;18.62;78.99
48964;BME280;34776;48.180;16.420;2023-10-13T05:41:00;99958.66;;;18.66;79.09
48964;BME280;34776;48.180;16.420;2023-10-13T05:43:45;99954.72;;;18.70;79.01
48964;BME280;34776;48.180;16.420;2023-10-13T05:46:29;99967.22;;;18.71;78.63
48964;BME280;34776;48.180;16.420;2023-10-13T05:49:08;99965.75;;;18.67;79.15
48964;BME280;34776;48.180;16.420;2023-10-13T05:51:51;99969.41;;;18.66;78.95
48964;BME280;34776;48.180;16.420;2023-10-13T05:54:25;99973.09;;;18.65;78.94
48964;BME280;34776;48.180;16.420;2023-10-13T05:57:09;99974.81;;;18.66;78.40
48964;BME280;34776;48.180;16.420;2023-10-13T05:59:53;99974.56;;;18.69;78.20
48964;BME280;34776;48.180;16.420;2023-10-13T06:02:36;99972.34;;;18.74;78.12
48964;BME280;34776;48.180;16.420;2023-10-13T06:05:20;99977.25;;;18.80;77.63
48964;BME280;34776;48.180;16.420;2023-10-13T06:08:24;99969.63;;;18.85;77.54
48964;BME280;34776;48.180;16.420;2023-10-13T06:11:08;99981.59;;;18.93;77.16
48964;BME280;34776;48.180;16.420;2023-10-13T06:13:52;99981.94;;;18.99;77.40
48964;BME280;34776;48.180;16.420;2023-10-13T06:16:36;99983.00;;;19.08;77.04
48964;BME280;34776;48.180;16.420;2023-10-13T06:19:20;99992.28;;;19.15;76.88
48964;BME280;34776;48.180;16.420;2023-10-13T06:22:04;99997.16;;;19.21;76.41
48964;BME280;34776;48.180;16.420;2023-10-13T06:24:48;99995.78;;;19.27;76.18
48964;BME280;34776;48.180;16.420;2023-10-13T06:27:32;99997.94;;;19.33;75.68
48964;BME280;34776;48.180;16.420;2023-10-13T06:30:16;100001.44;;;19.45;75.99
48964;BME280;34776;48.180;16.420;2023-10-13T06:32:43;100002.22;;;19.57;75.64
48964;BME280;34776;48.180;16.420;2023-10-13T06:35:11;100004.88;;;19.68;75.32
48964;BME280;34776;48.180;16.420;2023-10-13T06:37:50;100012.06;;;19.79;74.75
48964;BME280;34776;48.180;16.420;2023-10-13T06:40:16;100011.78;;;19.82;74.37
48964;BME280;34776;48.180;16.420;2023-10-13T06:42:52;100019.72;;;19.83;74.17
48964;BME280;34776;48.180;16.420;2023-10-13T06:45:19;100025.41;;;19.80;73.89
48964;BME280;34776;48.180;16.420;2023-10-13T06:47:47;100017.16;;;19.82;73.52
48964;BME280;34776;48.180;16.420;2023-10-13T06:50:14;100017.81;;;19.95;73.26
48964;BME280;34776;48.180;16.420;2023-10-13T06:52:45;100014.78;;;20.19;72.78
48964;BME280;34776;48.180;16.420;2023-10-13T06:55:12;100021.16;;;20.49;71.67
48964;BME280;34776;48.180;16.420;2023-10-13T06:57:43;100020.38;;;20.68;70.55
48964;BME280;34776;48.180;16.420;2023-10-13T07:00:10;100012.72;;;20.83;69.70
48964;BME280;34776;48.180;16.420;2023-10-13T07:02:45;100020.28;;;20.99;68.66
48964;BME280;34776;48.180;16.420;2023-10-13T07:05:12;100022.44;;;21.15;68.50
48964;BME280;34776;48.180;16.420;2023-10-13T07:07:39;100026.44;;;21.40;67.17
48964;BME280;34776;48.180;16.420;2023-10-13T07:10:12;100028.69;;;21.54;66.29
48964;BME280;34776;48.180;16.420;2023-10-13T07:12:38;100026.13;;;21.62;65.66
48964;BME280;34776;48.180;16.420;2023-10-13T07:15:11;100032.69;;;21.60;65.22
48964;BME280;34776;48.180;16.420;2023-10-13T07:17:45;100032.69;;;21.60;64.88
48964;BME280;34776;48.180;16.420;2023-10-13T07:20:20;100033.53;;;21.60;64.39
48964;BME280;34776;48.180;16.420;2023-10-13T07:22:54;100019.88;;;21.62;64.26
48964;BME280;34776;48.180;16.420;2023-10-13T07:25:23;100025.00;;;21.55;63.27
48964;BME280;34776;48.180;16.420;2023-10-13T07:27:51;100020.44;;;21.65;63.41
48964;BME280;34776;48.180;16.420;2023-10-13T07:30:17;100022.53;;;22.66;62.18
48964;BME280;34776;48.180;16.420;2023-10-13T07:32:45;100021.94;;;24.83;57.20
48964;BME280;34776;48.180;16.420;2023-10-13T07:35:15;100010.09;;;26.46;52.37
48964;BME280;34776;48.180;16.420;2023-10-13T07:37:43;100023.69;;;28.01;48.99
48964;BME280;34776;48.180;16.420;2023-10-13T07:40:10;100019.09;;;29.62;45.56
48964;BME280;34776;48.180;16.420;2023-10-13T07:42:51;100016.81;;;31.25;42.81
48964;BME280;34776;48.180;16.420;2023-10-13T07:45:17;100022.03;;;32.53;39.98
48964;BME280;34776;48.180;16.420;2023-10-13T07:47:53;100017.81;;;33.66;38.06
48964;BME280;34776;48.180;16.420;2023-10-13T07:50:18;100017.38;;;34.31;36.53
48964;BME280;34776;48.180;16.420;2023-10-13T07:52:50;100018.03;;;35.12;35.54
48964;BME280;34776;48.180;16.420;2023-10-13T07:55:33;100021.72;;;36.02;33.77
48964;BME280;34776;48.180;16.420;2023-10-13T07:57:59;100025.88;;;36.52;33.31
48964;BME280;34776;48.180;16.420;2023-10-13T08:00:26;100020.97;;;36.42;32.96
48964;BME280;34776;48.180;16.420;2023-10-13T08:03:04;100020.97;;;36.83;32.24
48964;BME280;34776;48.180;16.420;2023-10-13T08:05:42;100010.53;;;37.30;30.72
48964;BME280;34776;48.180;16.420;2023-10-13T08:08:26;99997.63;;;37.87;30.26
48964;BME280;34776;48.180;16.420;2023-10-13T08:10:57;100002.38;;;38.47;28.27
48964;BME280;34776;48.180;16.420;2023-10-13T08:13:33;100002.47;;;39.02;28.04
48964;BME280;34776;48.180;16.420;2023-10-13T08:16:03;100007.38;;;39.49;26.54
48964;BME280;34776;48.180;16.420;2023-10-13T08:18:38;100001.94;;;39.64;26.29
48964;BME280;34776;48.180;16.420;2023-10-13T08:21:06;100007.47;;;39.59;25.97
48964;BME280;34776;48.180;16.420;2023-10-13T08:23:32;100002.06;;;39.80;25.58
48964;BME280;34776;48.180;16.420;2023-10-13T08:26:16;100001.13;;;40.06;25.53
48964;BME280;34776;48.180;16.420;2023-10-13T08:29:00;99994.06;;;40.36;24.60
48964;BME280;34776;48.180;16.420;2023-10-13T08:31:44;99997.50;;;40.58;24.82
48964;BME280;34776;48.180;16.420;2023-10-13T08:34:31;99998.72;;;40.83;23.92
48964;BME280;34776;48.180;16.420;2023-10-13T08:37:12;99997.63;;;41.05;23.61
48964;BME280;34776;48.180;16.420;2023-10-13T08:39:59;99996.75;;;40.84;23.00
48964;BME280;34776;48.180;16.420;2023-10-13T08:42:28;99996.88;;;40.46;23.25
48964;BME280;34776;48.180;16.420;2023-10-13T08:45:08;99992.34;;;40.30;23.61
48964;BME280;34776;48.180;16.420;2023-10-13T08:47:57;99999.19;;;40.60;22.88
48964;BME280;34776;48.180;16.420;2023-10-13T08:50:43;100001.94;;;40.49;22.78
48964;BME280;34776;48.180;16.420;2023-10-13T08:53:22;99999.66;;;40.46;22.61
48964;BME280;34776;48.180;16.420;2023-10-13T08:56:02;99996.28;;;40.34;22.44
48964;BME280;34776;48.180;16.420;2023-10-13T08:58:44;100000.84;;;40.03;22.73
48964;BME280;34776;48.180;16.420;2023-10-13T09:01:23;100004.34;;;39.88;22.88
48964;BME280;34776;48.180;16.420;2023-10-13T09:04:08;100005.03;;;40.10;22.58
48964;BME280;34776;48.180;16.420;2023-10-13T09:06:51;99995.78;;;39.62;23.43
48964;BME280;34776;48.180;16.420;2023-10-13T09:09:31;99999.41;;;39.30;23.25
48964;BME280;34776;48.180;16.420;2023-10-13T09:12:12;100000.25;;;39.04;22.59
48964;BME280;34776;48.180;16.420;2023-10-13T09:14:39;99996.72;;;38.42;24.41
48964;BME280;34776;48.180;16.420;2023-10-13T09:17:10;99999.03;;;37.89;25.34
48964;BME280;34776;48.180;16.420;2023-10-13T09:19:44;99996.94;;;37.00;24.88
48964;BME280;34776;48.180;16.420;2023-10-13T09:22:29;99997.69;;;36.14;26.05
48964;BME280;34776;48.180;16.420;2023-10-13T09:25:03;99987.47;;;35.14;27.42
48964;BME280;34776;48.180;16.420;2023-10-13T09:27:31;99982.19;;;34.27;27.43
48964;BME280;34776;48.180;16.420;2023-10-13T09:30:03;99980.44;;;33.45;28.27
48964;BME280;34776;48.180;16.420;2023-10-13T09:32:43;99986.84;;;32.69;28.89
48964;BME280;34776;48.180;16.420;2023-10-13T09:35:17;99990.81;;;32.14;28.28
48964;BME280;34776;48.180;16.420;2023-10-13T09:37:44;99991.72;;;31.82;29.01
48964;BME280;34776;48.180;16.420;2023-10-13T09:40:15;99984.94;;;31.64;29.66
48964;BME280;34776;48.180;16.420;2023-10-13T09:43:00;99977.13;;;31.34;29.38
48964;BME280;34776;48.180;16.420;2023-10-13T09:45:41;99969.91;;;31.07;30.22
48964;BME280;34776;48.180;16.420;2023-10-13T09:48:36;99970.31;;;30.90;29.88
48964;BME280;34776;48.180;16.420;2023-10-13T09:51:14;99969.81;;;30.80;30.58
48964;BME280;34776;48.180;16.420;2023-10-13T09:53:52;99967.44;;;30.64;30.80
48964;BME280;34776;48.180;16.420;2023-10-13T09:56:32;99965.72;;;30.49;30.73
48964;BME280;34776;48.180;16.420;2023-10-13T09:59:09;99952.19;;;30.41;30.68
48964;BME280;34776;48.180;16.420;2023-10-13T10:01:42;99958.44;;;30.28;30.85
48964;BME280;34776;48.180;16.420;2023-10-13T10:04:18;99951.44;;;30.26;31.10
48964;BME280;34776;48.180;16.420;2023-10-13T10:06:57;99951.94;;;30.29;30.40
48964;BME280;34776;48.180;16.420;2023-10-13T10:09:29;99957.25;;;30.38;31.17
48964;BME280;34776;48.180;16.420;2023-10-13T10:12:18;99956.16;;;30.32;30.16
48964;BME280;34776;48.180;16.420;2023-10-13T10:17:45;99943.75;;;30.43;30.61
48964;BME280;34776;48.180;16.420;2023-10-13T10:20:13;99948.81;;;30.39;30.48
48964;BME280;34776;48.180;16.420;2023-10-13T10:22:58;99952.59;;;30.38;30.50
48964;BME280;34776;48.180;16.420;2023-10-13T10:25:35;99942.50;;;30.45;29.56
48964;BME280;34776;48.180;16.420;2023-10-13T10:28:03;99945.47;;;30.50;30.50
48964;BME280;34776;48.180;16.420;2023-10-13T10:30:35;99949.69;;;30.53;29.49
48964;BME280;34776;48.180;16.420;2023-10-13T10:33:04;99937.97;;;30.72;29.86
48964;BME280;34776;48.180;16.420;2023-10-13T10:35:38;99943.09;;;30.95;29.71
48964;BME280;34776;48.180;16.420;2023-10-13T10:38:13;99944.56;;;31.05;28.95
48964;BME280;34776;48.180;16.420;2023-10-13T10:41:06;99938.44;;;31.03;28.61
48964;BME280;34776;48.180;16.420;2023-10-13T10:43:37;99939.28;;;30.97;28.48
48964;BME280;34776;48.180;16.420;2023-10-13T10:46:13;99936.34;;;30.91;28.74
48964;BME280;34776;48.180;16.420;2023-10-13T10:48:39;99934.59;;;30.84;29.30
48964;BME280;34776;48.180;16.420;2023-10-13T10:51:09;99933.31;;;30.86;29.20
48964;BME280;34776;48.180;16.420;2023-10-13T10:53:49;99925.75;;;30.88;29.19
48964;BME280;34776;48.180;16.420;2023-10-13T10:56:17;99923.41;;;30.85;29.58
48964;BME280;34776;48.180;16.420;2023-10-13T10:58:52;99926.84;;;30.87;28.94
48964;BME280;34776;48.180;16.420;2023-10-13T11:01:29;99914.78;;;30.95;27.94
48964;BME280;34776;48.180;16.420;2023-10-13T11:04:13;99921.97;;;31.03;28.82
48964;BME280;34776;48.180;16.420;2023-10-13T11:07:00;99914.38;;;31.05;28.24
48964;BME280;34776;48.180;16.420;2023-10-13T11:09:26;99905.72;;;31.08;28.18
48964;BME280;34776;48.180;16.420;2023-10-13T11:11:56;99909.09;;;31.10;27.85
48964;BME280;34776;48.180;16.420;2023-10-13T11:14:31;99897.50;;;31.21;28.80
48964;BME280;34776;48.180;16.420;2023-10-13T11:16:57;99900.44;;;31.26;28.52
48964;BME280;34776;48.180;16.420;2023-10-13T11:19:42;99899.38;;;31.14;27.72
48964;BME280;34776;48.180;16.420;2023-10-13T11:22:15;99896.63;;;31.14;28.35
48964;BME280;34776;48.180;16.420;2023-10-13T11:25:03;99892.22;;;31.26;27.78
48964;BME280;34776;48.180;16.420;2023-10-13T11:27:35;99897.06;;;31.38;28.24
48964;BME280;34776;48.180;16.420;2023-10-13T11:30:19;99896.66;;;31.27;28.21
48964;BME280;34776;48.180;16.420;2023-10-13T11:33:09;99881.03;;;31.21;27.33
48964;BME280;34776;48.180;16.420;2023-10-13T11:35:39;99880.59;;;31.24;28.21
48964;BME280;34776;48.180;16.420;2023-10-13T11:38:20;99876.81;;;31.19;28.10
48964;BME280;34776;48.180;16.420;2023-10-13T11:40:53;99866.22;;;31.29;28.86
48964;BME280;34776;48.180;16.420;2023-10-13T11:43:36;99866.66;;;31.32;28.75
48964;BME280;34776;48.180;16.420;2023-10-13T11:46:14;99857.78;;;31.30;27.75
48964;BME280;34776;48.180;16.420;2023-10-13T11:48:44;99855.25;;;31.35;27.81
48964;BME280;34776;48.180;16.420;2023-10-13T11:51:13;99855.25;;;31.49;28.53
48964;BME280;34776;48.180;16.420;2023-10-13T11:53:51;99851.84;;;31.60;28.01
48964;BME280;34776;48.180;16.420;2023-10-13T11:56:18;99851.41;;;31.63;27.97
48964;BME280;34776;48.180;16.420;2023-10-13T11:58:46;99840.84;;;31.60;28.32
48964;BME280;34776;48.180;16.420;2023-10-13T12:01:13;99838.94;;;31.67;28.29
48964;BME280;34776;48.180;16.420;2023-10-13T12:03:41;99841.91;;;31.66;28.36
48964;BME280;34776;48.180;16.420;2023-10-13T12:06:29;99831.50;;;31.74;28.57
48964;BME280;34776;48.180;16.420;2023-10-13T12:09:09;99826.00;;;31.74;28.50
48964;BME280;34776;48.180;16.420;2023-10-13T12:11:48;99822.41;;;31.81;28.38
48964;BME280;34776;48.180;16.420;2023-10-13T12:14:19;99822.59;;;31.79;28.28
48964;BME280;34776;48.180;16.420;2023-10-13T12:16:49;99815.03;;;31.74;28.47
48964;BME280;34776;48.180;16.420;2023-10-13T12:19:20;99817.81;;;31.61;28.87
48964;BME280;34776;48.180;16.420;2023-10-13T12:21:55;99815.09;;;31.61;28.91
48964;BME280;34776;48.180;16.420;2023-10-13T12:24:28;99812.09;;;31.69;28.55
48964;BME280;34776;48.180;16.420;2023-10-13T12:27:03;99808.69;;;31.74;28.30
48964;BME280;34776;48.180;16.420;2023-10-13T12:29:47;99808.25;;;31.84;28.54
48964;BME280;34776;48.180;16.420;2023-10-13T12:32:13;99809.97;;;31.71;28.64
48964;BME280;34776;48.180;16.420;2023-10-13T12:34:40;99806.38;;;31.71;28.59
48964;BME280;34776;48.180;16.420;2023-10-13T12:37:24;99803.00;;;31.75;28.69
48964;BME280;34776;48.180;16.420;2023-10-13T12:40:18;99801.09;;;31.69;28.62
48964;BME280;34776;48.180;16.420;2023-10-13T12:43:04;99801.13;;;31.56;29.21
48964;BME280;34776;48.180;16.420;2023-10-13T12:45:49;99796.94;;;31.47;29.41
48964;BME280;34776;48.180;16.420;2023-10-13T12:48:34;99791.44;;;31.53;29.32
48964;BME280;34776;48.180;16.420;2023-10-13T12:51:19;99801.59;;;31.33;29.81
48964;BME280;34776;48.180;16.420;2023-10-13T12:54:01;99788.50;;;31.42;29.61
48964;BME280;34776;48.180;16.420;2023-10-13T12:56:40;99796.53;;;31.36;29.70
48964;BME280;34776;48.180;16.420;2023-10-13T12:59:11;99791.06;;;31.23;29.79
48964;BME280;34776;48.180;16.420;2023-10-13T13:01:39;99782.19;;;31.21;29.82
48964;BME280;34776;48.180;16.420;2023-10-13T13:04:13;99778.81;;;31.19;29.83
48964;BME280;34776;48.180;16.420;2023-10-13T13:06:57;99774.19;;;31.20;29.81
48964;BME280;34776;48.180;16.420;2023-10-13T13:09:24;99776.72;;;31.01;30.09
48964;BME280;34776;48.180;16.420;2023-10-13T13:11:53;99773.56;;;30.91;30.32
48964;BME280;34776;48.180;16.420;2023-10-13T13:14:26;99766.81;;;30.80;30.32
48964;BME280;34776;48.180;16.420;2023-10-13T13:16:57;99761.53;;;30.59;30.49
48964;BME280;34776;48.180;16.420;2023-10-13T13:19:37;99758.81;;;30.52;31.06
48964;BME280;34776;48.180;16.420;2023-10-13T13:22:08;99758.56;;;30.40;31.02
48964;BME280;34776;48.180;16.420;2023-10-13T13:24:43;99750.53;;;30.32;31.20
48964;BME280;34776;48.180;16.420;2023-10-13T13:27:15;99742.28;;;30.25;31.88
48964;BME280;34776;48.180;16.420;2023-10-13T13:29:47;99751.34;;;30.12;31.96